Tiempo atmosférico en la estación meteorológica de Fuencaliente, Ciudad Real (640 m.)



Fecha
DESCASC
Temp. máxima en grados centígrados (hora)
DESCASC
Temp. mínima en grados centígrados (hora)
DESCASC
Temp. media en grados centígrados
DESCASC
Racha de viento máxima en m/sg (hora)
DESCASC
Velocidad máxima media en intervalos de 10 minutos(hora)
DESCASC
Precipitaciones diarias en mm
DESCASC
Precipitaciones de 00:00 a 06:00 en mm
DESCASC
Precipitaciones de 06:00 a 12:00 en mm
DESCASC
Precipitaciones de 12:00 a 18:00 en mm
DESCASC
Precipitaciones de 18:00 a 24:00 en mm
DESCASC
22-04-2019 18 (16:00) 7.8 (07:40) 12.9 8.33 (13:30) 5 (15:00) 0 0 0 0 0
21-04-2019 11 (17:30) 8.1 (07:00) 9.6 13.89 (01:30) 6.11 (00:10) 0 0 0 0 0
20-04-2019 11.3 (12:00) 8.1 (01:50) 9.7 18.61 (20:30) 8.61 (20:30) 10.4 0.2 9 1.2 0
19-04-2019 14.9 (17:20) 8 (04:40) 11.4 10.83 (18:30) 5.28 (18:30) 1 0 0.2 0.8 0
18-04-2019 13.9 (14:00) 8 (00:00) 10.9 5 (15:40) 3.06 (15:40) 5.2 2 2.4 0.4 0.4
17-04-2019 23 (14:50) 7.5 (00:00) 15.3 10 (17:10) 5 (21:30) 0 0 0 0 0
16-04-2019 22.5 (18:20) 5.5 (00:00) 14 6.94 (15:40) 3.33 (12:20) 0 0 0 0 0
15-04-2019 23 (18:00) 9.3 (00:00) 16.2 11.67 (15:10) 6.67 (15:10) 0.2 0 0 0 0.2
14-04-2019 22.2 (16:50) 6.9 (00:00) 14.6 6.67 (16:00) 3.89 (13:40) 0 0 0 0 0
13-04-2019 20.7 (17:00) 4 (00:00) 12.4 9.17 (17:40) 4.72 (17:40) 0 0 0 0 0
12-04-2019 18.3 (17:20) 4.5 (00:00) 11.4 6.67 (05:20) 2.78 (05:00) 0 0 0 0 0
11-04-2019 17.1 (18:50) 2.9 (00:00) 10 8.89 (14:30) 3.33 (20:10) 2 0 0 0 2
10-04-2019 14.3 (18:30) 4.3 (00:00) 9.3 10 (21:50) 4.44 (15:10) 0 0 0 0 0
09-04-2019 13.4 (16:40) 5.5 (00:00) 9.4 11.94 (15:00) 6.11 (15:50) 2 0 0 1.8 0.2
08-04-2019 12.6 (17:00) 6 (00:00) 9.3 12.5 (13:50) 4.17 (23:30) 23.8 5.4 3 6.8 8.6
07-04-2019 10.4 (16:10) 4.8 (00:00) 7.6 11.39 (01:00) 5.28 (00:50) 11.8 1.8 2.4 1 6.6
06-04-2019 9.2 (15:50) 4.2 (00:00) 6.7 11.94 (06:50) 5 (13:10) 10.6 0.4 2.2 5.6 2.4
05-04-2019 9.5 (17:10) 3.8 (00:00) 6.6 12.5 (13:30) 5.28 (22:10) 19.6 0 8.8 3.6 7.2
04-04-2019 16.9 (16:30) 3.2 (00:00) 10 8.06 (09:00) 3.89 (10:00) 0 0 0 0 0
03-04-2019 19 (16:40) 4.7 (00:00) 11.8 11.11 (18:00) 5 (18:00) 0 0 0 0 0
02-04-2019 18.6 (17:00) 7.4 (00:00) 13 6.67 (16:50) 4.17 (18:20) 0 0 0 0 0
01-04-2019 16.9 (16:00) 8.7 (00:00) 12.8 7.78 (19:40) 4.44 (19:40) 11.8 4.6 7.2 0 0
31-03-2019 14.9 (17:30) 9 (00:00) 11.9 5.28 (18:50) 2.78 (18:50) 1 0.2 0.8 0 0
30-03-2019 21 (16:00) 4.6 (00:00) 12.8 9.17 (13:50) 3.33 (14:20) 1.4 0 0 0 1.4
29-03-2019 18.5 (16:30) 1.7 (00:00) 10.1 5.83 (15:40) 3.61 (12:00) 0 0 0 0 0
28-03-2019 18.6 (17:30) 1.5 (00:00) 10.1 7.78 (13:30) 3.89 (10:50) 0 0 0 0 0
27-03-2019 18.6 (17:00) 0.7 (00:00) 9.7 10.56 (15:10) 5 (15:10) 0 0 0 0 0
26-03-2019 23.5 (16:00) 6 (00:00) 14.8 9.72 (09:40) 5.28 (09:40) 0 0 0 0 0
25-03-2019 21.8 (15:30) 4.3 (00:00) 13 9.72 (11:10) 4.72 (11:10) 0 0 0 0 0

Gráficas

Temp. máximas Temp. mínimas Temp. medias Precipitaciones Rachas de viento máximas Velocidades máximas media en intervalos de 10 minutos

Datos horarios

Fecha y hora oficial Temperatura (ºC) Velocidad del viento (km/h) Dirección del viento Racha (km/h) Dirección de racha Precipitación (mm) Presión (hPa) Tendencia (hPa) Humedad (%)
2019-04-23 23:00:00 5.2 9 Oeste 27 Oeste 0 -- -- 85
2019-04-23 22:00:00 5.4 3 Noroeste 19 Noroeste 0 -- -- 83
2019-04-23 21:00:00 6.3 3 Nordeste 34 Sudoeste 1 -- -- 84
2019-04-23 20:00:00 6.8 4 Sudeste 22 Sudeste 0.2 -- -- 84
2019-04-23 19:00:00 6.8 8 Oeste 45 Sur 1 -- -- 82
2019-04-23 18:00:00 9.1 13 Sudoeste 26 Sudoeste 0.2 -- -- 69
2019-04-23 17:00:00 7.8 18 Sudoeste 34 Oeste 0 -- -- 75
2019-04-23 16:00:00 9.3 12 Sudoeste 43 Sudoeste 0.2 -- -- 68
2019-04-23 15:00:00 10.8 10 Sudoeste 39 Sur 0 -- -- 57
2019-04-23 14:00:00 11.2 9 Sudoeste 28 Oeste 0 -- -- 61
2019-04-23 13:00:00 9.4 12 Oeste 32 Oeste 0 -- -- 67
2019-04-23 12:00:00 8.1 11 Oeste 31 Oeste 0 -- -- 81
2019-04-23 11:00:00 7.4 5 Oeste 23 Sudoeste 0 -- -- 87
2019-04-23 10:00:00 7.4 10 Oeste 26 Sudoeste 0.8 -- -- 89
2019-04-23 09:00:00 7.8 4 Nordeste 54 Sudoeste 5.6 -- -- 89
2019-04-23 08:00:00 9.4 6 Sur 29 Sudoeste 1.2 -- -- 91
2019-04-23 07:00:00 9.6 6 Sur 18 Sudeste 0 -- -- 86
2019-04-23 06:00:00 9.9 6 Sur 19 Sudoeste 0 -- -- 83
2019-04-23 05:00:00 10.1 8 Sudoeste 27 Sur 0 -- -- 83
2019-04-23 04:00:00 10.3 7 Sur 30 Oeste 0 -- -- 83
2019-04-23 03:00:00 10.6 13 Sudoeste 36 Sudoeste 0 -- -- 87
2019-04-23 02:00:00 11.2 8 Sur 31 Sudoeste 0 -- -- 83
2019-04-23 01:00:00 11.7 5 Sudoeste 13 Sur 0 -- -- 74
2019-04-23 00:00:00 12.8 0 Calma 23 Sudeste 0 -- -- 69
2019-04-22 23:00:00 11.1 4 Este 14 Este 0 -- -- 77
2019-04-22 22:00:00 11 3 Este 8 Este 0 -- -- 81
2019-04-22 21:00:00 12.6 2 Nordeste 5 Este 0 -- -- 75
2019-04-22 20:00:00 14.6 4 Sudeste 11 Este 0 -- -- 66
2019-04-22 19:00:00 14.8 4 Este 22 Sudoeste 0 -- -- 64
2019-04-22 18:00:00 15.5 7 Sur 23 Sudoeste 0 -- -- 60
2019-04-22 17:00:00 17.2 10 Oeste 21 Oeste 0 -- -- 53
2019-04-22 16:00:00 18 13 Sudoeste 24 Sudoeste 0 -- -- 45
2019-04-22 15:00:00 17.3 18 Sudoeste 29 Sudoeste 0 -- -- 51
2019-04-22 14:00:00 15.4 15 Sudoeste 30 Sudoeste 0 -- -- 56
2019-04-22 13:00:00 14.6 9 Sudoeste 19 Oeste 0 -- -- 58
2019-04-22 12:00:00 13 10 Sudoeste 20 Sur 0 -- -- 62
2019-04-22 11:00:00 12 5 Sur 13 Sur 0 -- -- 70
2019-04-22 10:00:00 11.1 4 Sudeste 8 Sur 0 -- -- 75
2019-04-22 09:00:00 8.6 0 Calma 6 Norte 0 -- -- 86
2019-04-22 08:00:00 7.9 2 Norte 9 Norte 0 -- -- 87
2019-04-22 07:00:00 8.4 3 Noroeste 11 Norte 0 -- -- 82
2019-04-22 06:00:00 8.6 4 Nordeste 18 Oeste 0 -- -- 82
2019-04-22 05:00:00 8.8 5 Norte 23 Noroeste 0 -- -- 80
2019-04-22 04:00:00 9.1 6 Oeste 18 Norte 0 -- -- 78
2019-04-22 03:00:00 9.1 7 Nordeste 26 Nordeste 0 -- -- 77
2019-04-22 02:00:00 9.1 8 Nordeste 18 Nordeste 0 -- -- 78
2019-04-22 01:00:00 9.1 4 Noroeste 21 Nordeste 0 -- -- 79
2019-04-22 00:00:00 9.4 9 Nordeste 22 Nordeste 0 -- -- 78
2019-04-21 23:00:00 9.6 9 Nordeste 24 Este 0 -- -- 75
2019-04-21 22:00:00 9.5 12 Nordeste 28 Nordeste 0 -- -- 75
2019-04-21 21:00:00 9.8 6 Nordeste 22 Norte 0 -- -- 74
2019-04-21 20:00:00 10 5 Nordeste 25 Este 0 -- -- 72
2019-04-21 19:00:00 10.3 9 Nordeste 28 Nordeste 0 -- -- 72
2019-04-21 18:00:00 10.8 9 Nordeste 22 Este 0 -- -- 70
2019-04-21 17:00:00 10.7 5 Nordeste 17 Este 0 -- -- 71
2019-04-21 16:00:00 10.6 8 Nordeste 22 Este 0 -- -- 73
2019-04-21 15:00:00 10.4 8 Este 21 Norte 0 -- -- 72
2019-04-21 14:00:00 10 5 Nordeste 22 Este 0 -- -- 74
2019-04-21 13:00:00 9.9 11 Nordeste 28 Nordeste 0 -- -- 74
2019-04-21 12:00:00 9.7 4 Nordeste 27 Este 0 -- -- 75
2019-04-21 11:00:00 8.8 7 Nordeste 28 Este 0 -- -- 78
2019-04-21 10:00:00 8.5 10 Este 32 Este 0 -- -- 78
2019-04-21 09:00:00 8.3 12 Este 34 Nordeste 0 -- -- 78
2019-04-21 08:00:00 8.1 10 Nordeste 32 Este 0 -- -- 78
2019-04-21 07:00:00 8.1 11 Nordeste 36 Nordeste 0 -- -- 77
2019-04-21 06:00:00 8.4 22 Nordeste 40 Este 0 -- -- 78
2019-04-21 05:00:00 8.6 17 Nordeste 44 Norte 0 -- -- 76
2019-04-21 04:00:00 8.9 17 Nordeste 39 Nordeste 0 -- -- 74
2019-04-21 03:00:00 9 19 Nordeste 40 Nordeste 0 -- -- 75
2019-04-21 02:00:00 9.3 17 Nordeste 50 Nordeste 0 -- -- 75
2019-04-21 01:00:00 9.6 18 Nordeste 43 Nordeste 0 -- -- 75
2019-04-21 00:00:00 10 21 Nordeste 52 Nordeste 0 -- -- 72
2019-04-20 23:00:00 9.9 21 Nordeste 50 Nordeste 0 -- -- 75
2019-04-20 22:00:00 10.1 25 Nordeste 60 Nordeste 0 -- -- 73
2019-04-20 21:00:00 10.4 27 Nordeste 67 Nordeste 0 -- -- 70
2019-04-20 20:00:00 10.5 26 Nordeste 48 Nordeste 0 -- -- 71
2019-04-20 19:00:00 10.6 15 Nordeste 51 Nordeste 0 -- -- 76
2019-04-20 18:00:00 10.7 23 Nordeste 55 Nordeste 0 -- -- 76
2019-04-20 17:00:00 10.8 24 Nordeste 52 Nordeste 0 -- -- 76
2019-04-20 16:00:00 10.7 22 Nordeste 57 Nordeste 0.2 -- -- 78
2019-04-20 15:00:00 10.1 21 Nordeste 55 Este 0.2 -- -- 81
2019-04-20 14:00:00 9.3 22 Nordeste 50 Nordeste 0.8 -- -- 83
2019-04-20 13:00:00 10.2 26 Nordeste 55 Este 0 -- -- 78
2019-04-20 12:00:00 11.3 23 Nordeste 51 Nordeste 0.2 -- -- 71
2019-04-20 11:00:00 10.3 25 Nordeste 58 Nordeste 0 -- -- 74
2019-04-20 10:00:00 9.7 18 Nordeste 38 Nordeste 0.2 -- -- 80
2019-04-20 09:00:00 9.2 13 Este 53 Nordeste 1.2 -- -- 84
2019-04-20 08:00:00 8.8 4 Norte 37 Nordeste 5.2 -- -- 90
2019-04-20 07:00:00 8.7 10 Nordeste 32 Nordeste 2.2 -- -- 88
2019-04-20 06:00:00 8.9 15 Nordeste 39 Este 0.2 -- -- 80
2019-04-20 05:00:00 8.6 17 Nordeste 48 Este 0 -- -- 87
2019-04-20 04:00:00 8.7 12 Nordeste 31 Nordeste 0 -- -- 83
2019-04-20 03:00:00 8.3 10 Nordeste 28 Nordeste 0 -- -- 82
2019-04-20 02:00:00 8.2 10 Nordeste 22 Nordeste 0 -- -- 78
2019-04-20 01:00:00 8.3 9 Noroeste 36 Nordeste 0 -- -- 77
2019-04-20 00:00:00 8.3 14 Nordeste 36 Nordeste 0 -- -- 77
2019-04-19 23:00:00 8.7 14 Nordeste 35 Este 0 -- -- 77
2019-04-19 22:00:00 9.5 13 Nordeste 32 Nordeste 0 -- -- 77
2019-04-19 21:00:00 10.3 11 Nordeste 28 Nordeste 0 -- -- 79
2019-04-19 20:00:00 11.1 13 Nordeste 34 Nordeste 0 -- -- 75
2019-04-19 19:00:00 11.8 17 Nordeste 39 Nordeste 0 -- -- 70
2019-04-19 18:00:00 13.9 9 Nordeste 24 Este 0 -- -- 58
2019-04-19 17:00:00 13.8 4 Oeste 18 Nordeste 0 -- -- 60
2019-04-19 16:00:00 14.5 3 Norte 15 Este 0.2 -- -- 62
2019-04-19 15:00:00 13.2 8 Sudoeste 11 Sudoeste 0.6 -- -- 76
2019-04-19 14:00:00 11.3 4 Sur 10 Sur 0 -- -- 80
2019-04-19 13:00:00 11.7 6 Sudeste 10 Sudeste 0 -- -- 80
2019-04-19 12:00:00 11.5 2 Sudoeste 8 Sur 0 -- -- 79
2019-04-19 11:00:00 10.2 3 Sur 8 Sur 0 -- -- 85
2019-04-19 10:00:00 9 5 Sur 9 Sur 0 -- -- 91
2019-04-19 09:00:00 8.4 0 Calma 5 Sudeste 0 -- -- 94
2019-04-19 08:00:00 8.1 2 Sur 6 Sur 0 -- -- 95
2019-04-19 07:00:00 8.2 3 Sur 5 Sur 0.2 -- -- 94
2019-04-19 06:00:00 8.1 0 Calma 3 Sudeste 0 -- -- 93
2019-04-19 05:00:00 8 0 Calma 6 Sur 0 -- -- 94
2019-04-19 04:00:00 8.2 2 Sur 5 Sur 0 -- -- 93
2019-04-19 03:00:00 8.2 4 Sudeste 9 Sudeste 0 -- -- 94
2019-04-19 02:00:00 8.3 0 Calma 6 Sudoeste 0 -- -- 93
2019-04-19 01:00:00 8.4 0 Calma 5 Oeste 0 -- -- 92
2019-04-19 00:00:00 8.2 0 Calma 4 Nordeste 0 -- -- 93
2019-04-18 23:00:00 8.1 0 Calma 5 Sudeste 0 -- -- 92
2019-04-18 22:00:00 8.5 2 Sudeste 12 Este 0 -- -- 91
2019-04-18 21:00:00 8.9 0 Calma 9 Nordeste 0.2 -- -- 90
2019-04-18 20:00:00 9.3 2 Este 10 Nordeste 0.2 -- -- 85
2019-04-18 19:00:00 10.8 2 Norte 8 Norte 0 -- -- 80
2019-04-18 18:00:00 10.2 0 Calma 9 Sudeste 0 -- -- 83
2019-04-18 17:00:00 9.4 4 Sudeste 13 Sur 0.4 -- -- 88
2019-04-18 16:00:00 9.9 6 Sudeste 18 Sudoeste 0 -- -- 87
2019-04-18 15:00:00 11.7 10 Sudoeste 16 Sur 0 -- -- 80
2019-04-18 14:00:00 13.9 8 Este 17 Este 0 -- -- 68
2019-04-18 13:00:00 12.1 4 Noroeste 12 Oeste 0 -- -- 76
2019-04-18 12:00:00 10.4 2 Noroeste 6 Noroeste 1 -- -- 89
2019-04-18 11:00:00 10 3 Sur 7 Sudoeste 1.2 -- -- 90
2019-04-18 10:00:00 9.9 5 Sudeste 9 Sudeste 0 -- -- 92
2019-04-18 09:00:00 9.9 4 Sudeste 11 Sur 0 -- -- 92
2019-04-18 08:00:00 10.1 3 Sur 8 Sudoeste 0.2 -- -- 92
2019-04-18 07:00:00 10.2 0 Calma 5 Sudoeste 0 -- -- 91
2019-04-18 06:00:00 10.3 0 Calma 13 Sudoeste 0.2 -- -- 89
2019-04-18 05:00:00 10.7 5 Sudoeste 11 Sudoeste 0 -- -- 87
2019-04-18 04:00:00 10.7 4 Oeste 11 Sudeste 0.4 -- -- 90
2019-04-18 03:00:00 11.1 2 Nordeste 6 Sudoeste 0.8 -- -- 90
2019-04-18 02:00:00 11.5 0 Calma 8 Sur 0.2 -- -- 87
2019-04-18 01:00:00 11.9 4 Sudeste 14 Sur 0.4 -- -- 84
2019-04-18 00:00:00 13.3 7 Sur 27 Sudoeste 0 -- -- 77
2019-04-17 23:00:00 14.2 10 Sudoeste 24 Sudoeste 0 -- -- 70
2019-04-17 22:00:00 14.8 13 Sudoeste 29 Oeste 0 -- -- 65
2019-04-17 21:00:00 15.9 10 Sudoeste 25 Oeste 0 -- -- 60
2019-04-17 20:00:00 16.9 12 Sudoeste 33 Sudoeste 0 -- -- 57
2019-04-17 19:00:00 17.7 6 Sudoeste 36 Sur 0 -- -- 53
2019-04-17 18:00:00 18 10 Sudoeste 36 Sudoeste 0 -- -- 54
2019-04-17 17:00:00 19.6 16 Sudoeste 31 Oeste 0 -- -- 49
2019-04-17 16:00:00 21.2 14 Sudoeste 27 Sudoeste 0 -- -- 43
2019-04-17 15:00:00 22.8 11 Sur 20 Sudoeste 0 -- -- 38
2019-04-17 14:00:00 22.1 10 Sur 23 Sur 0 -- -- 34
2019-04-17 13:00:00 21.5 11 Sur 24 Sur 0 -- -- 39
2019-04-17 12:00:00 20 8 Sur 16 Sur 0 -- -- 43
2019-04-17 11:00:00 17.2 5 Sudeste 13 Sudeste 0 -- -- 55
2019-04-17 10:00:00 13.3 0 Calma 9 Nordeste 0 -- -- 68
2019-04-17 09:00:00 10.1 0 Calma 5 Nordeste 0 -- -- 87
2019-04-17 08:00:00 7.9 2 Nordeste 6 Nordeste 0 -- -- 84
2019-04-17 07:00:00 7.8 0 Calma 8 Sudoeste 0 -- -- 79
2019-04-17 06:00:00 7.8 0 Calma 5 Nordeste 0 -- -- 77
2019-04-17 05:00:00 8.3 0 Calma 4 Nordeste 0 -- -- 76
2019-04-17 04:00:00 9.4 0 Calma 6 Este 0 -- -- 69
2019-04-17 03:00:00 9.7 3 Norte 6 Este 0 -- -- 66
2019-04-17 02:00:00 9.8 0 Calma 7 Nordeste 0 -- -- 73
2019-04-17 01:00:00 10.5 2 Nordeste 5 Este 0 -- -- 74
2019-04-17 00:00:00 10.6 2 Nordeste 4 Nordeste 0 -- -- 78
2019-04-16 23:00:00 11.6 0 Calma 2 Nordeste 0 -- -- 75
2019-04-16 22:00:00 13.1 0 Calma 4 Nordeste 0 -- -- 67
2019-04-16 21:00:00 16.1 2 Nordeste 10 Sudoeste 0 -- -- 55
2019-04-16 20:00:00 21.3 7 Sur 14 Sur 0 -- -- 37
2019-04-16 19:00:00 22 9 Sur 18 Sur 0 -- -- 33
2019-04-16 18:00:00 22.3 9 Sudoeste 21 Sudoeste 0 -- -- 29
2019-04-16 17:00:00 21.6 8 Sudeste 21 Sudeste 0 -- -- 27
2019-04-16 16:00:00 21.2 7 Sur 25 Sur 0 -- -- 35
2019-04-16 15:00:00 20.2 9 Sudoeste 19 Sur 0 -- -- 35
2019-04-16 14:00:00 18.9 5 Sur 22 Sur 0 -- -- 48
2019-04-16 13:00:00 17.5 10 Sur 20 Sudeste 0 -- -- 50
2019-04-16 12:00:00 16.7 9 Sur 15 Sur 0 -- -- 54
2019-04-16 11:00:00 15.6 6 Sur 11 Sur 0 -- -- 58
2019-04-16 10:00:00 14.1 2 Sudoeste 7 Noroeste 0 -- -- 68
2019-04-16 09:00:00 8.8 0 Calma 9 Nordeste 0 -- -- 96
2019-04-16 08:00:00 5.6 0 Calma 5 Este 0 -- -- 93
2019-04-16 07:00:00 5.9 0 Calma 9 Noroeste 0 -- -- 93
2019-04-16 06:00:00 6.2 0 Calma 9 Nordeste 0 -- -- 94
2019-04-16 05:00:00 6.2 0 Calma 2 Nordeste 0 -- -- 91
2019-04-16 04:00:00 6.9 2 Nordeste 4 Nordeste 0 -- -- 90
2019-04-16 03:00:00 7.7 3 Nordeste 7 Nordeste 0 -- -- 87
2019-04-16 02:00:00 9.7 2 Norte 10 Nordeste 0 -- -- 79
2019-04-16 01:00:00 10.1 4 Norte 9 Nordeste 0 -- -- 81
2019-04-16 00:00:00 11.1 3 Norte 6 Noroeste 0 -- -- 82
2019-04-15 23:00:00 12.5 0 Calma 9 Norte 0 -- -- 80
2019-04-15 22:00:00 13.1 0 Calma 10 Norte 0 -- -- 80
2019-04-15 21:00:00 14.7 4 Nordeste 10 Nordeste 0 -- -- 77
2019-04-15 20:00:00 16.4 0 Calma 34 Sudoeste 0.2 -- -- 71
2019-04-15 19:00:00 21.2 18 Sudoeste 39 Sudoeste 0 -- -- 36
2019-04-15 18:00:00 23 15 Sudoeste 37 Sudoeste 0 -- -- 30
2019-04-15 17:00:00 22.8 23 Sudoeste 40 Sur 0 -- -- 30
2019-04-15 16:00:00 22.9 18 Sudoeste 42 Sudoeste 0 -- -- 34
2019-04-15 15:00:00 22.6 21 Sudoeste 38 Sudoeste 0 -- -- 34
2019-04-15 14:00:00 22 18 Sudoeste 40 Sudoeste 0 -- -- 38
2019-04-15 13:00:00 20.5 13 Sudoeste 27 Sur 0 -- -- 44
2019-04-15 12:00:00 19.7 13 Sur 27 Sudoeste 0 -- -- 53
2019-04-15 11:00:00 19 7 Sudeste 15 Este 0 -- -- 59
2019-04-15 10:00:00 17.4 3 Sudeste 7 Sudeste 0 -- -- 70
2019-04-15 09:00:00 11.3 0 Calma 2 Nordeste 0 -- -- 96
2019-04-15 08:00:00 9.3 0 Calma 3 Sudoeste 0 -- -- 94
2019-04-15 07:00:00 9.6 2 Nordeste 5 Nordeste 0 -- -- 93
2019-04-15 06:00:00 10.2 0 Calma 6 Nordeste 0 -- -- 93
2019-04-15 05:00:00 10.2 2 Oeste 8 Nordeste 0 -- -- 93
2019-04-15 04:00:00 10.2 0 Calma 5 Nordeste 0 -- -- 91
2019-04-15 03:00:00 10.7 0 Calma 6 Nordeste 0 -- -- 92
2019-04-15 02:00:00 11.1 0 Calma 4 Sudoeste 0 -- -- 89
2019-04-15 01:00:00 11.9 2 Nordeste 4 Este 0 -- -- 88
2019-04-15 00:00:00 13 0 Calma 4 Este 0 -- -- 83
2019-04-14 23:00:00 14.1 0 Calma 5 Nordeste 0 -- -- 80
2019-04-14 22:00:00 15.5 2 Norte 5 Norte 0 -- -- 76
2019-04-14 21:00:00 18 0 Calma 5 Noroeste 0 -- -- 66
2019-04-14 20:00:00 20 3 Nordeste 11 Oeste 0 -- -- 57
2019-04-14 19:00:00 21.7 8 Sudoeste 23 Sudoeste 0 -- -- 49
2019-04-14 18:00:00 21.6 10 Sudoeste 22 Sudoeste 0 -- -- 47
2019-04-14 17:00:00 22.1 13 Sudoeste 24 Sudoeste 0 -- -- 49
2019-04-14 16:00:00 21.8 13 Sudoeste 24 Sudoeste 0 -- -- 50
2019-04-14 15:00:00 20.8 10 Oeste 22 Sudoeste 0 -- -- 53
2019-04-14 14:00:00 20.4 11 Sudoeste 23 Sudoeste 0 -- -- 59
2019-04-14 13:00:00 19 11 Sudoeste 22 Sudoeste 0 -- -- 64
2019-04-14 12:00:00 17.2 6 Sudeste 12 Sudeste 0 -- -- 64
2019-04-14 11:00:00 15.3 5 Sur 13 Sur 0 -- -- 65
2019-04-14 10:00:00 13 4 Sur 10 Sudeste 0 -- -- 68
2019-04-14 09:00:00 9.4 2 Nordeste 4 Este 0 -- -- 92
2019-04-14 08:00:00 7.1 0 Calma 4 Nordeste 0 -- -- 92
2019-04-14 07:00:00 6.9 0 Calma 2 Nordeste 0 -- -- 91
2019-04-14 06:00:00 6.9 0 Calma 0 Calma 0 -- -- 88
2019-04-14 05:00:00 7.1 0 Calma 0 Calma 0 -- -- 82
2019-04-14 04:00:00 7 0 Calma 4 Este 0 -- -- 78
2019-04-14 03:00:00 7 0 Calma 4 Nordeste 0 -- -- 80
2019-04-14 02:00:00 7.3 0 Calma 4 Este 0 -- -- 80
2019-04-14 01:00:00 8 0 Calma 5 Este 0 -- -- 78
2019-04-14 00:00:00 8.8 0 Calma 4 Nordeste 0 -- -- 74
2019-04-13 23:00:00 11 0 Calma 9 Norte 0 -- -- 66
2019-04-13 22:00:00 13.5 6 Norte 10 Norte 0 -- -- 53
2019-04-13 21:00:00 15.5 4 Nordeste 7 Nordeste 0 -- -- 46
2019-04-13 20:00:00 20 5 Oeste 16 Noroeste 0 -- -- 34
2019-04-13 19:00:00 20.5 7 Oeste 30 Sudoeste 0 -- -- 31
2019-04-13 18:00:00 20.5 10 Sudoeste 33 Sudoeste 0 -- -- 33
2019-04-13 17:00:00 20.7 7 Oeste 25 Sudoeste 0 -- -- 34
2019-04-13 16:00:00 20 13 Sudoeste 28 Sur 0 -- -- 33
2019-04-13 15:00:00 19.5 10 Sudoeste 23 Oeste 0 -- -- 38
2019-04-13 14:00:00 19 5 Oeste 23 Oeste 0 -- -- 38
2019-04-13 13:00:00 18.4 6 Norte 25 Oeste 0 -- -- 37
2019-04-13 12:00:00 17.8 5 Norte 17 Norte 0 -- -- 36
2019-04-13 11:00:00 16.3 4 Noroeste 15 Nordeste 0 -- -- 40
2019-04-13 10:00:00 13.3 2 Sudoeste 4 Sur 0 -- -- 60
2019-04-13 09:00:00 6.5 0 Calma 5 Noroeste 0 -- -- 83
2019-04-13 08:00:00 4.1 0 Calma 4 Norte 0 -- -- 81
2019-04-13 07:00:00 4.2 0 Calma 3 Este 0 -- -- 81
2019-04-13 06:00:00 4.6 0 Calma 5 Norte 0 -- -- 78
2019-04-13 05:00:00 5 0 Calma 4 Oeste 0 -- -- 77
2019-04-13 04:00:00 5.3 0 Calma 3 Este 0 -- -- 79
2019-04-13 03:00:00 5.3 0 Calma 3 Este 0 -- -- 79
2019-04-13 02:00:00 5.6 0 Calma 2 Este 0 -- -- 77
2019-04-13 01:00:00 5.9 0 Calma 5 Este 0 -- -- 76
2019-04-13 00:00:00 6.9 0 Calma 4 Nordeste 0 -- -- 70
2019-04-12 23:00:00 8.6 0 Calma 6 Norte 0 -- -- 66
2019-04-12 22:00:00 10.9 5 Norte 9 Norte 0 -- -- 56
2019-04-12 21:00:00 13.1 4 Norte 11 Nordeste 0 -- -- 49
2019-04-12 20:00:00 17 3 Nordeste 15 Oeste 0 -- -- 39
2019-04-12 19:00:00 18.1 4 Nordeste 16 Norte 0 -- -- 37
2019-04-12 18:00:00 17.9 5 Noroeste 16 Noroeste 0 -- -- 35
2019-04-12 17:00:00 18.2 4 Noroeste 19 Noroeste 0 -- -- 37
2019-04-12 16:00:00 18 8 Noroeste 24 Noroeste 0 -- -- 36
2019-04-12 15:00:00 17.6 8 Noroeste 21 Oeste 0 -- -- 37
2019-04-12 14:00:00 16.4 4 Sudeste 17 Noroeste 0 -- -- 40
2019-04-12 13:00:00 15.6 6 Sudoeste 19 Este 0 -- -- 42
2019-04-12 12:00:00 15.1 5 Oeste 15 Oeste 0 -- -- 43
2019-04-12 11:00:00 14.7 4 Sudeste 12 Este 0 -- -- 47
2019-04-12 10:00:00 12.5 4 Noroeste 15 Norte 0 -- -- 52
2019-04-12 09:00:00 7.2 5 Noroeste 12 Noroeste 0 -- -- 70
2019-04-12 08:00:00 4.9 2 Nordeste 12 Noroeste 0 -- -- 78
2019-04-12 07:00:00 6.8 5 Noroeste 12 Noroeste 0 -- -- 65
2019-04-12 06:00:00 6.9 3 Sudoeste 24 Norte 0 -- -- 68
2019-04-12 05:00:00 7.5 10 Norte 22 Norte 0 -- -- 64
2019-04-12 04:00:00 6.4 8 Nordeste 16 Norte 0 -- -- 78
2019-04-12 03:00:00 4.8 0 Calma 7 Noroeste 0 -- -- 93
2019-04-12 02:00:00 4.7 0 Calma 9 Noroeste 0 -- -- 92
2019-04-12 01:00:00 4.8 0 Calma 4 Nordeste 0 -- -- 92
2019-04-12 00:00:00 5.1 0 Calma 5 Norte 0 -- -- 89
2019-04-11 23:00:00 6.1 0 Calma 9 Nordeste 0 -- -- 89
2019-04-11 22:00:00 7.7 4 Nordeste 13 Este 0.2 -- -- 85
2019-04-11 21:00:00 9.7 6 Nordeste 25 Norte 1.8 -- -- 77
2019-04-11 20:00:00 14.2 3 Nordeste 30 Este 0 -- -- 48
2019-04-11 19:00:00 17.1 6 Noroeste 19 Oeste 0 -- -- 37
2019-04-11 18:00:00 15.9 6 Sudoeste 18 Oeste 0 -- -- 38
2019-04-11 17:00:00 15.8 9 Oeste 25 Norte 0 -- -- 41
2019-04-11 16:00:00 16.7 6 Norte 21 Nordeste 0 -- -- 37
2019-04-11 15:00:00 15.4 5 Nordeste 32 Noroeste 0 -- -- 38
2019-04-11 14:00:00 14.5 5 Nordeste 17 Norte 0 -- -- 46
2019-04-11 13:00:00 14.3 5 Este 14 Nordeste 0 -- -- 49
2019-04-11 12:00:00 13.3 8 Nordeste 18 Este 0 -- -- 51
2019-04-11 11:00:00 12.8 8 Nordeste 19 Nordeste 0 -- -- 53
2019-04-11 10:00:00 11.1 5 Nordeste 12 Nordeste 0 -- -- 65
2019-04-11 09:00:00 6.7 5 Noroeste 11 Noroeste 0 -- -- 81
2019-04-11 08:00:00 3.2 2 Nordeste 5 Nordeste 0 -- -- 92
2019-04-11 07:00:00 3.4 0 Calma 9 Norte 0 -- -- 89
2019-04-11 06:00:00 3.2 0 Calma 3 Nordeste 0 -- -- 91
2019-04-11 05:00:00 3.2 0 Calma 5 Nordeste 0 -- -- 90
2019-04-11 04:00:00 3.6 3 Nordeste 5 Este 0 -- -- 90
2019-04-11 03:00:00 4.5 0 Calma 4 Nordeste 0 -- -- 87
2019-04-11 02:00:00 6 0 Calma 2 Nordeste 0 -- -- 86
2019-04-11 01:00:00 6.6 0 Calma 9 Norte 0 -- -- 83
2019-04-11 00:00:00 7.2 6 Nordeste 10 Noroeste 0 -- -- 80
2019-04-10 23:00:00 8 5 Norte 21 Nordeste 0 -- -- 77
2019-04-10 22:00:00 9 10 Nordeste 36 Nordeste 0 -- -- 72
2019-04-10 21:00:00 10.4 5 Este 13 Noroeste 0 -- -- 62
2019-04-10 20:00:00 12.6 5 Este 23 Noroeste 0 -- -- 54
2019-04-10 19:00:00 13.5 8 Oeste 33 Oeste 0 -- -- 50
2019-04-10 18:00:00 14 12 Oeste 28 Sudoeste 0 -- -- 50
2019-04-10 17:00:00 14 10 Oeste 31 Sudoeste 0 -- -- 54
2019-04-10 16:00:00 13.2 9 Oeste 31 Sudoeste 0 -- -- 53
2019-04-10 15:00:00 12.4 10 Noroeste 27 Oeste 0 -- -- 60
2019-04-10 14:00:00 10.3 6 Oeste 17 Oeste 0 -- -- 69
2019-04-10 13:00:00 9.5 8 Oeste 20 Noroeste 0 -- -- 67
2019-04-10 12:00:00 8.9 5 Oeste 23 Oeste 0 -- -- 72
2019-04-10 11:00:00 8.4 6 Noroeste 24 Sudoeste 0 -- -- 74
2019-04-10 10:00:00 7.2 4 Oeste 14 Nordeste 0 -- -- 82
2019-04-10 09:00:00 5.3 3 Este 6 Nordeste 0 -- -- 92
2019-04-10 08:00:00 4.3 0 Calma 6 Nordeste 0 -- -- 91
2019-04-10 07:00:00 5.1 2 Sur 5 Este 0 -- -- 88
2019-04-10 06:00:00 5.7 0 Calma 9 Noroeste 0 -- -- 87
2019-04-10 05:00:00 6.2 4 Este 17 Noroeste 0 -- -- 85
2019-04-10 04:00:00 6.8 4 Noroeste 15 Oeste 0 -- -- 83
2019-04-10 03:00:00 7.3 2 Nordeste 14 Oeste 0 -- -- 82
2019-04-10 02:00:00 7.7 3 Oeste 14 Sur 0 -- -- 82
2019-04-10 01:00:00 7.4 0 Calma 10 Sudoeste 0 -- -- 87
2019-04-10 00:00:00 8 3 Nordeste 22 Oeste 0 -- -- 82
2019-04-09 23:00:00 7.4 3 Oeste 10 Noroeste 0 -- -- 86
2019-04-09 22:00:00 8 4 Nordeste 20 Sudoeste 0 -- -- 83
2019-04-09 21:00:00 9.8 7 Oeste 18 Oeste 0 -- -- 77
2019-04-09 20:00:00 10.6 4 Oeste 26 Noroeste 0.2 -- -- 74
2019-04-09 19:00:00 11.4 8 Oeste 28 Oeste 0 -- -- 70
2019-04-09 18:00:00 10.2 5 Noroeste 34 Noroeste 1 -- -- 77
2019-04-09 17:00:00 12.7 13 Oeste 34 Oeste 0 -- -- 59
2019-04-09 16:00:00 12.5 15 Sudoeste 40 Oeste 0 -- -- 67
2019-04-09 15:00:00 11.5 19 Sudoeste 43 Oeste 0 -- -- 70
2019-04-09 14:00:00 8.5 10 Oeste 29 Sudoeste 0.8 -- -- 81
2019-04-09 13:00:00 9.9 12 Sudoeste 31 Oeste 0 -- -- 78
2019-04-09 12:00:00 9.5 9 Sudoeste 33 Sudoeste 0 -- -- 78
2019-04-09 11:00:00 8.2 9 Sudoeste 23 Oeste 0 -- -- 84
2019-04-09 10:00:00 6.8 5 Oeste 19 Oeste 0 -- -- 90
2019-04-09 09:00:00 6.2 7 Sudoeste 21 Sudoeste 0 -- -- 91
2019-04-09 08:00:00 5.8 5 Sudoeste 13 Sudoeste 0 -- -- 93
2019-04-09 07:00:00 5.5 0 Calma 12 Nordeste 0 -- -- 93
2019-04-09 06:00:00 5.8 5 Nordeste 12 Oeste 0 -- -- 91
2019-04-09 05:00:00 6.6 0 Calma 17 Oeste 0 -- -- 92
2019-04-09 04:00:00 6.4 3 Nordeste 10 Noroeste 0 -- -- 93
2019-04-09 03:00:00 5.8 4 Nordeste 14 Nordeste 0 -- -- 93
2019-04-09 02:00:00 5.5 4 Nordeste 8 Norte 0 -- -- 93
2019-04-09 01:00:00 6.6 3 Nordeste 10 Nordeste 0 -- -- 92
2019-04-09 00:00:00 7.4 4 Nordeste 31 Oeste 0 -- -- 90
2019-04-08 23:00:00 6.3 0 Calma 6 Nordeste 0 -- -- 92
2019-04-08 22:00:00 8.5 2 Norte 9 Oeste 0.2 -- -- 91
2019-04-08 21:00:00 10.4 5 Oeste 31 Sudoeste 8.4 -- -- 87
2019-04-08 20:00:00 12.1 3 Noroeste 11 Sur 0 -- -- 86
2019-04-08 19:00:00 12.4 0 Calma 17 Noroeste 0 -- -- 87
2019-04-08 18:00:00 12.1 11 Oeste 21 Sur 1.6 -- -- 87
2019-04-08 17:00:00 12.6 10 Sudoeste 42 Sur 0 -- -- 88
2019-04-08 16:00:00 11.7 11 Sudoeste 31 Sudoeste 1 -- -- 87
2019-04-08 15:00:00 11.4 5 Sur 31 Sur 0.4 -- -- 89
2019-04-08 14:00:00 11 7 Oeste 45 Sur 2.2 -- -- 88
2019-04-08 13:00:00 10.8 12 Sudoeste 29 Sur 1.6 -- -- 90
2019-04-08 12:00:00 10.4 12 Sur 24 Sur 2.4 -- -- 90
2019-04-08 11:00:00 10 9 Sur 24 Sudoeste 0 -- -- 90
2019-04-08 10:00:00 9.4 6 Sudeste 31 Sur 0.2 -- -- 92
2019-04-08 09:00:00 9.4 6 Sur 17 Oeste 0.2 -- -- 90
2019-04-08 08:00:00 9.5 8 Sudoeste 42 Sur 0.2 -- -- 89
2019-04-08 07:00:00 9.6 9 Sur 26 Sudeste 0 -- -- 89
2019-04-08 06:00:00 9.6 3 Este 28 Oeste 0 -- -- 89
2019-04-08 05:00:00 9.4 9 Oeste 27 Sudoeste 2.4 -- -- 91
2019-04-08 04:00:00 9.5 9 Sur 23 Sudoeste 2.6 -- -- 94
2019-04-08 03:00:00 9.7 7 Sudeste 28 Sudeste 0.4 -- -- 93
2019-04-08 02:00:00 10.1 6 Oeste 23 Oeste 0 -- -- 88
2019-04-08 01:00:00 10 10 Oeste 26 Sur 0 -- -- 90
2019-04-08 00:00:00 9.6 4 Este 18 Oeste 1.6 -- -- 95
2019-04-07 23:00:00 9.1 3 Este 6 Este 2.8 -- -- 95
2019-04-07 22:00:00 9 0 Calma 5 Este 0.2 -- -- 94
2019-04-07 21:00:00 8.7 2 Este 8 Sudeste 0.8 -- -- 94
2019-04-07 20:00:00 8.5 4 Sudeste 12 Sudeste 0.8 -- -- 94
2019-04-07 19:00:00 9 7 Sur 17 Sudoeste 0.4 -- -- 92
2019-04-07 18:00:00 9.6 8 Sudoeste 22 Sudoeste 0 -- -- 85
2019-04-07 17:00:00 10.1 5 Oeste 25 Sudoeste 0 -- -- 75
2019-04-07 16:00:00 10 8 Sudoeste 19 Oeste 0.2 -- -- 79
2019-04-07 15:00:00 9.8 8 Oeste 28 Sudoeste 0 -- -- 79
2019-04-07 14:00:00 9.2 4 Oeste 25 Oeste 0.2 -- -- 82
2019-04-07 13:00:00 8.4 3 Sudoeste 11 Nordeste 0.6 -- -- 85
2019-04-07 12:00:00 7.2 3 Nordeste 11 Oeste 0.8 -- -- 88
2019-04-07 11:00:00 6.9 4 Sudoeste 19 Oeste 0.2 -- -- 88
2019-04-07 10:00:00 6.1 5 Oeste 26 Oeste 0.8 -- -- 88
2019-04-07 09:00:00 5.7 9 Oeste 34 Sudoeste 0.4 -- -- 90
2019-04-07 08:00:00 5.6 8 Oeste 31 Noroeste 0 -- -- 87
2019-04-07 07:00:00 5.6 9 Oeste 36 Oeste 0.2 -- -- 88
2019-04-07 06:00:00 5.6 8 Oeste 40 Oeste 0.2 -- -- 89
2019-04-07 05:00:00 5.7 12 Oeste 38 Oeste 0.4 -- -- 89
2019-04-07 04:00:00 5.7 17 Oeste 39 Sudoeste 1.2 -- -- 89
2019-04-07 03:00:00 5.9 8 Oeste 35 Oeste 0 -- -- 89
2019-04-07 02:00:00 5.8 10 Oeste 29 Oeste 0 -- -- 88
2019-04-07 01:00:00 5.5 15 Oeste 41 Oeste 0 -- -- 87
2019-04-07 00:00:00 4.8 9 Sudoeste 21 Oeste 0 -- -- 89
2019-04-06 23:00:00 4.9 4 Sudoeste 24 Sudoeste 0.2 -- -- 86
2019-04-06 22:00:00 4.5 3 Nordeste 32 Sudoeste 1.4 -- -- 89
2019-04-06 21:00:00 5.8 7 Noroeste 18 Oeste 0.2 -- -- 85
2019-04-06 20:00:00 6.3 3 Nordeste 37 Sudoeste 0.6 -- -- 85
2019-04-06 19:00:00 7.5 10 Oeste 31 Noroeste 0 -- -- 73
2019-04-06 18:00:00 5.7 8 Noroeste 37 Oeste 0.8 -- -- 82
2019-04-06 17:00:00 7 13 Oeste 41 Sudoeste 0.4 -- -- 75
2019-04-06 16:00:00 8.9 9 Oeste 34 Sudoeste 0 -- -- 73
2019-04-06 15:00:00 6.8 10 Oeste 27 Sudoeste 2.6 -- -- 88
2019-04-06 14:00:00 6.4 8 Oeste 35 Sudoeste 0.8 -- -- 86
2019-04-06 13:00:00 7.2 12 Noroeste 36 Oeste 1 -- -- 75
2019-04-06 12:00:00 6.7 10 Oeste 38 Oeste 0.2 -- -- 83
2019-04-06 11:00:00 5.5 6 Oeste 27 Oeste 0.8 -- -- 86
2019-04-06 10:00:00 5.2 4 Noroeste 31 Sudeste 0.4 -- -- 89
2019-04-06 09:00:00 5.1 4 Sudeste 30 Noroeste 0 -- -- 89
2019-04-06 08:00:00 4.8 10 Oeste 35 Oeste 0 -- -- 89
2019-04-06 07:00:00 4.7 10 Noroeste 43 Oeste 0.8 -- -- 89
2019-04-06 06:00:00 4.5 8 Noroeste 36 Oeste 0.2 -- -- 89
2019-04-06 05:00:00 4.5 9 Oeste 33 Noroeste 0 -- -- 87
2019-04-06 04:00:00 4.2 12 Oeste 30 Oeste 0.2 -- -- 88
2019-04-06 03:00:00 4.4 16 Oeste 31 Oeste 0 -- -- 86
2019-04-06 02:00:00 4.5 9 Sudoeste 35 Sudoeste 0 -- -- 89
2019-04-06 01:00:00 4.5 10 Sudoeste 27 Noroeste 0 -- -- 89
2019-04-06 00:00:00 4.5 9 Oeste 31 Noroeste 0.2 -- -- 89
2019-04-05 23:00:00 4 6 Este 37 Oeste 5.2 -- -- 90
2019-04-05 22:00:00 5.1 10 Oeste 44 Oeste 1.8 -- -- 81
2019-04-05 21:00:00 6.3 2 Norte 13 Oeste 0 -- -- 70
2019-04-05 20:00:00 7.5 0 Calma 23 Oeste 0 -- -- 63
2019-04-05 19:00:00 8.4 8 Noroeste 36 Oeste 0 -- -- 57
2019-04-05 18:00:00 9 13 Oeste 36 Sudoeste 0 -- -- 54
2019-04-05 17:00:00 8.6 9 Oeste 32 Sudoeste 0 -- -- 63
2019-04-05 16:00:00 8.8 11 Oeste 29 Noroeste 0 -- -- 70
2019-04-05 15:00:00 8 8 Oeste 23 Oeste 0 -- -- 84
2019-04-05 14:00:00 4.4 2 Norte 45 Sudoeste 3 -- -- 88
2019-04-05 13:00:00 6.3 10 Sur 20 Sur 0.6 -- -- 94
2019-04-05 12:00:00 5.6 8 Sur 15 Sur 1.8 -- -- 93
2019-04-05 11:00:00 5.4 7 Sur 17 Sudoeste 0.6 -- -- 90
2019-04-05 10:00:00 5.2 5 Sur 19 Este 2.2 -- -- 89
2019-04-05 09:00:00 5.2 6 Sudeste 11 Sudeste 3.6 -- -- 91
2019-04-05 08:00:00 5.5 4 Sur 14 Sur 0.6 -- -- 87
2019-04-05 07:00:00 5.7 5 Sudeste 15 Sur 0 -- -- 82
2019-04-05 06:00:00 5.9 6 Sur 16 Sur 0 -- -- 81
2019-04-05 05:00:00 6.2 6 Sur 13 Sudoeste 0 -- -- 80
2019-04-05 04:00:00 6.4 3 Sudeste 8 Sudeste 0 -- -- 75
2019-04-05 03:00:00 6.1 3 Sudeste 10 Oeste 0 -- -- 74
2019-04-05 02:00:00 5.8 2 Sur 11 Oeste 0 -- -- 72
2019-04-05 01:00:00 8.2 5 Sudoeste 19 Sur 0 -- -- 58
2019-04-05 00:00:00 9.1 7 Sudoeste 19 Sur 0 -- -- 49
2019-04-04 23:00:00 9.7 8 Sur 20 Sur 0 -- -- 44
2019-04-04 22:00:00 10.3 6 Sudoeste 16 Sur 0 -- -- 44
2019-04-04 21:00:00 11.5 3 Noroeste 20 Sudeste 0 -- -- 47
2019-04-04 20:00:00 13.4 9 Sur 22 Sur 0 -- -- 41
2019-04-04 19:00:00 15.1 9 Sur 26 Sudoeste 0 -- -- 37
2019-04-04 18:00:00 16.3 10 Sudoeste 25 Oeste 0 -- -- 33
2019-04-04 17:00:00 16.6 14 Sudoeste 24 Sudoeste 0 -- -- 33
2019-04-04 16:00:00 16.1 10 Sudoeste 24 Sudoeste 0 -- -- 31
2019-04-04 15:00:00 15.4 9 Sur 19 Sudeste 0 -- -- 32
2019-04-04 14:00:00 14.1 6 Sudoeste 22 Sur 0 -- -- 32
2019-04-04 13:00:00 13.6 6 Sudeste 17 Sudeste 0 -- -- 36
2019-04-04 12:00:00 12.5 8 Nordeste 24 Este 0 -- -- 38
2019-04-04 11:00:00 11.6 10 Nordeste 26 Nordeste 0 -- -- 39
2019-04-04 10:00:00 9.8 14 Nordeste 28 Nordeste 0 -- -- 41
2019-04-04 09:00:00 5.9 13 Nordeste 29 Nordeste 0 -- -- 48
2019-04-04 08:00:00 5.1 9 Nordeste 21 Nordeste 0 -- -- 53
2019-04-04 07:00:00 4.6 4 Nordeste 15 Nordeste 0 -- -- 57
2019-04-04 06:00:00 3.4 2 Noroeste 13 Norte 0 -- -- 70
2019-04-04 05:00:00 4.2 5 Norte 13 Noroeste 0 -- -- 63
2019-04-04 04:00:00 4.1 5 Nordeste 9 Norte 0 -- -- 64
2019-04-04 03:00:00 4.9 4 Norte 8 Nordeste 0 -- -- 60
2019-04-04 02:00:00 5.4 2 Norte 6 Noroeste 0 -- -- 58
2019-04-04 01:00:00 6.4 3 Nordeste 9 Este 0 -- -- 53
2019-04-04 00:00:00 8 4 Este 14 Noroeste 0 -- -- 49
2019-04-03 23:00:00 8.9 3 Este 9 Sudeste 0 -- -- 49
2019-04-03 22:00:00 9.9 4 Nordeste 8 Nordeste 0 -- -- 61
2019-04-03 21:00:00 11.9 0 Calma 18 Oeste 0 -- -- 57
2019-04-03 20:00:00 15.3 6 Oeste 25 Oeste 0 -- -- 45
2019-04-03 19:00:00 17.2 9 Oeste 30 Sudoeste 0 -- -- 40
2019-04-03 18:00:00 18.5 18 Oeste 40 Oeste 0 -- -- 32
2019-04-03 17:00:00 18.9 15 Oeste 36 Oeste 0 -- -- 31
2019-04-03 16:00:00 18.9 14 Oeste 39 Sudoeste 0 -- -- 35
2019-04-03 15:00:00 18.4 10 Oeste 28 Noroeste 0 -- -- 36
2019-04-03 14:00:00 17.5 9 Oeste 29 Sudoeste 0 -- -- 40
2019-04-03 13:00:00 16.3 6 Sudoeste 31 Sudoeste 0 -- -- 44
2019-04-03 12:00:00 15.4 10 Sudoeste 31 Sudoeste 0 -- -- 50
2019-04-03 11:00:00 13.4 13 Sudoeste 25 Sudoeste 0 -- -- 56
2019-04-03 10:00:00 10.4 0 Calma 4 Sur 0 -- -- 83
2019-04-03 09:00:00 5.7 0 Calma 3 Nordeste 0 -- -- 95
2019-04-03 08:00:00 4.7 0 Calma 3 Este 0 -- -- 93
2019-04-03 07:00:00 4.8 0 Calma 3 Nordeste 0 -- -- 93
2019-04-03 06:00:00 4.9 0 Calma 2 Nordeste 0 -- -- 93
2019-04-03 05:00:00 5.1 0 Calma 2 Este 0 -- -- 92
2019-04-03 04:00:00 5.4 0 Calma 4 Oeste 0 -- -- 91
2019-04-03 03:00:00 5.6 0 Calma 7 Nordeste 0 -- -- 90
2019-04-03 02:00:00 6.1 0 Calma 3 Nordeste 0 -- -- 89
2019-04-03 01:00:00 6.7 0 Calma 3 Este 0 -- -- 87
2019-04-03 00:00:00 7.4 0 Calma 3 Nordeste 0 -- -- 85
2019-04-02 23:00:00 8.4 0 Calma 3 Este 0 -- -- 81
2019-04-02 22:00:00 10.3 0 Calma 5 Norte 0 -- -- 74
2019-04-02 21:00:00 13.1 4 Norte 8 Nordeste 0 -- -- 62
2019-04-02 20:00:00 17.1 3 Oeste 18 Sudoeste 0 -- -- 46
2019-04-02 19:00:00 18.5 9 Sudoeste 24 Sudoeste 0 -- -- 41
2019-04-02 18:00:00 18 7 Oeste 23 Sudoeste 0 -- -- 46
2019-04-02 17:00:00 18.6 10 Sudoeste 24 Sudoeste 0 -- -- 48
2019-04-02 16:00:00 17.2 11 Sudoeste 22 Sudoeste 0 -- -- 53
2019-04-02 15:00:00 16.9 10 Sudoeste 22 Sudeste 0 -- -- 55
2019-04-02 14:00:00 15.3 4 Sudeste 15 Sur 0 -- -- 62
2019-04-02 13:00:00 13.4 5 Este 13 Sudeste 0 -- -- 68
2019-04-02 12:00:00 12.8 3 Sur 8 Sur 0 -- -- 76
2019-04-02 11:00:00 11 2 Sur 6 Este 0 -- -- 81
2019-04-02 10:00:00 10.2 0 Calma 5 Sudoeste 0 -- -- 87
2019-04-02 09:00:00 9.4 0 Calma 5 Sudeste 0 -- -- 90
2019-04-02 08:00:00 9.2 3 Nordeste 6 Norte 0 -- -- 92
2019-04-02 07:00:00 9 0 Calma 9 Sudoeste 0 -- -- 92
2019-04-02 06:00:00 8.9 0 Calma 7 Nordeste 0 -- -- 92
2019-04-02 05:00:00 9.1 0 Calma 4 Nordeste 0 -- -- 90
2019-04-02 04:00:00 9.3 0 Calma 4 Nordeste 0 -- -- 89
2019-04-02 03:00:00 9.3 0 Calma 2 Nordeste 0 -- -- 89
2019-04-02 02:00:00 8.8 0 Calma 4 Nordeste 0 -- -- 90
2019-04-02 01:00:00 8.4 2 Nordeste 5 Nordeste 0 -- -- 89
2019-04-02 00:00:00 8.7 0 Calma 4 Nordeste 0 -- -- 87
2019-04-01 23:00:00 9.6 2 Nordeste 6 Nordeste 0 -- -- 85
2019-04-01 22:00:00 11.2 4 Sur 20 Sudoeste 0 -- -- 78
2019-04-01 21:00:00 11.9 10 Sudoeste 22 Sudoeste 0 -- -- 75
2019-04-01 20:00:00 12.8 10 Sur 28 Oeste 0 -- -- 73
2019-04-01 19:00:00 14.1 8 Sur 19 Sur 0 -- -- 61
2019-04-01 18:00:00 14.7 8 Sur 24 Sudoeste 0 -- -- 58
2019-04-01 17:00:00 14.5 13 Sur 27 Oeste 0 -- -- 67
2019-04-01 16:00:00 16.9 7 Sur 17 Sur 0 -- -- 55
2019-04-01 15:00:00 15.3 6 Sudeste 13 Sur 0 -- -- 66
2019-04-01 14:00:00 13 4 Este 10 Sudeste 0 -- -- 78
2019-04-01 13:00:00 12.2 3 Sudeste 10 Sur 0 -- -- 87
2019-04-01 12:00:00 10.7 3 Sudeste 6 Sudeste 0 -- -- 91
2019-04-01 11:00:00 10 0 Calma 6 Sur 3.4 -- -- 94
2019-04-01 10:00:00 9.8 0 Calma 4 Sudoeste 1.4 -- -- 92
2019-04-01 09:00:00 9.3 0 Calma 7 Sur 1 -- -- 93
2019-04-01 08:00:00 9.2 0 Calma 4 Norte 0 -- -- 94
2019-04-01 07:00:00 9.1 0 Calma 6 Oeste 1.4 -- -- 93
2019-04-01 06:00:00 9.2 0 Calma 4 Oeste 0.6 -- -- 92
2019-04-01 05:00:00 9.4 2 Nordeste 6 Este 2.8 -- -- 93
2019-04-01 04:00:00 9.5 0 Calma 6 Sur 0.4 -- -- 92
2019-04-01 03:00:00 9.3 5 Sudoeste 10 Sudoeste 0 -- -- 93
2019-04-01 02:00:00 9.5 0 Calma 6 Norte 0 -- -- 91
2019-04-01 01:00:00 9.6 2 Noroeste 8 Este 0.8 -- -- 91
2019-04-01 00:00:00 9.3 0 Calma 3 Este 0 -- -- 87
2019-03-31 23:00:00 9.3 2 Oeste 5 Norte 0 -- -- 84
2019-03-31 22:00:00 10.3 2 Nordeste 7 Norte 0 -- -- 81
2019-03-31 21:00:00 11.1 2 Oeste 11 Este 0 -- -- 75
2019-03-31 20:00:00 12.8 5 Nordeste 15 Nordeste 0 -- -- 69
2019-03-31 19:00:00 13.8 8 Nordeste 19 Nordeste 0 -- -- 65
2019-03-31 18:00:00 13.7 6 Este 17 Este 0 -- -- 68
2019-03-31 17:00:00 13.5 5 Sur 13 Sur 0 -- -- 74
2019-03-31 16:00:00 13.6 8 Sur 13 Sur 0 -- -- 73
2019-03-31 15:00:00 12.9 5 Sur 12 Sudoeste 0 -- -- 78
2019-03-31 14:00:00 12.3 5 Sur 12 Sudeste 0 -- -- 77
2019-03-31 13:00:00 12.3 3 Sudeste 9 Sur 0 -- -- 80
2019-03-31 12:00:00 12.3 4 Sudeste 8 Sudoeste 0 -- -- 80
2019-03-31 11:00:00 11.3 3 Sudeste 6 Sur 0 -- -- 87
2019-03-31 10:00:00 10.2 0 Calma 5 Noroeste 0 -- -- 89
2019-03-31 09:00:00 9.6 0 Calma 3 Sur 0.6 -- -- 92
2019-03-31 08:00:00 9.4 0 Calma 9 Sudeste 0 -- -- 92
2019-03-31 07:00:00 9.4 0 Calma 6 Norte 0.2 -- -- 91
2019-03-31 06:00:00 9.7 0 Calma 5 Nordeste 0 -- -- 90
2019-03-31 05:00:00 10 0 Calma 5 Nordeste 0 -- -- 89
2019-03-31 03:00:00 10.5 2 Nordeste 5 Este 0 -- -- 88
2019-03-31 01:00:00 10.5 4 Nordeste 7 Nordeste 0 -- -- 86
2019-03-31 00:00:00 10.9 0 Calma 13 Norte 0 -- -- 85
2019-03-30 23:00:00 11.2 4 Norte 13 Nordeste 0 -- -- 82
2019-03-30 22:00:00 12.2 4 Norte 13 Norte 1.4 -- -- 80
2019-03-30 21:00:00 15.1 3 Norte 8 Norte 0 -- -- 55
2019-03-30 20:00:00 17 5 Este 13 Este 0 -- -- 45
2019-03-30 19:00:00 18.6 3 Nordeste 15 Sudeste 0 -- -- 40
2019-03-30 18:00:00 19.5 3 Sudeste 17 Nordeste 0 -- -- 38
2019-03-30 17:00:00 20.3 12 Nordeste 22 Nordeste 0 -- -- 36
2019-03-30 16:00:00 21 6 Sur 21 Sudeste 0 -- -- 37
2019-03-30 15:00:00 20.5 9 Sudeste 21 Sur 0 -- -- 36
2019-03-30 14:00:00 19.9 10 Sur 33 Sudoeste 0 -- -- 37
2019-03-30 13:00:00 19.3 8 Sur 17 Sur 0 -- -- 38
2019-03-30 12:00:00 17.8 7 Sur 18 Sudeste 0 -- -- 40
2019-03-30 11:00:00 16.6 7 Sur 14 Sur 0 -- -- 42
2019-03-30 10:00:00 14.1 4 Sur 10 Noroeste 0 -- -- 52
2019-03-30 09:00:00 10.6 0 Calma 4 Este 0 -- -- 67
2019-03-30 08:00:00 5 0 Calma 4 Este 0 -- -- 84
2019-03-30 07:00:00 4.8 0 Calma 4 Oeste 0 -- -- 83
2019-03-30 06:00:00 6 3 Norte 8 Norte 0 -- -- 78
2019-03-30 05:00:00 5.5 3 Norte 6 Norte 0 -- -- 79
2019-03-30 04:00:00 5 0 Calma 4 Sudoeste 0 -- -- 76
2019-03-30 03:00:00 5.2 0 Calma 3 Este 0 -- -- 72
2019-03-30 02:00:00 6.2 0 Calma 4 Nordeste 0 -- -- 65
2019-03-30 01:00:00 8.5 0 Calma 11 Sudeste 0 -- -- 58
2019-03-30 00:00:00 9.6 0 Calma 5 Noroeste 0 -- -- 53
2019-03-29 23:00:00 9 0 Calma 5 Este 0 -- -- 56
2019-03-29 22:00:00 8.7 0 Calma 2 Nordeste 0 -- -- 55
2019-03-29 21:00:00 9.1 0 Calma 5 Nordeste 0 -- -- 51
2019-03-29 20:00:00 11.5 0 Calma 3 Este 0 -- -- 45
2019-03-29 19:00:00 17.1 2 Oeste 10 Sur 0 -- -- 30
2019-03-29 18:00:00 17.7 5 Sudeste 17 Sudoeste 0 -- -- 28
2019-03-29 17:00:00 18.1 6 Sudeste 16 Sur 0 -- -- 29
2019-03-29 16:00:00 18 8 Sur 21 Sur 0 -- -- 27
2019-03-29 15:00:00 18.1 7 Oeste 20 Sur 0 -- -- 27
2019-03-29 14:00:00 17.1 7 Sudeste 18 Sudoeste 0 -- -- 25
2019-03-29 13:00:00 16.5 8 Sur 18 Sur 0 -- -- 28
2019-03-29 12:00:00 14.7 13 Sur 21 Sur 0 -- -- 28
2019-03-29 11:00:00 13.7 8 Sur 17 Sur 0 -- -- 30
2019-03-29 10:00:00 13 5 Sudeste 14 Sur 0 -- -- 33
2019-03-29 09:00:00 8.9 0 Calma 6 Noroeste 0 -- -- 48
2019-03-29 08:00:00 1.7 2 Este 6 Norte 0 -- -- 60
2019-03-29 07:00:00 2.7 0 Calma 5 Norte 0 -- -- 49
2019-03-29 06:00:00 2.3 0 Calma 7 Nordeste 0 -- -- 56
2019-03-29 05:00:00 3.6 0 Calma 6 Sudeste 0 -- -- 45
2019-03-29 04:00:00 3.8 3 Oeste 8 Este 0 -- -- 44
2019-03-29 03:00:00 3.6 0 Calma 4 Este 0 -- -- 53
2019-03-29 02:00:00 3.9 0 Calma 5 Nordeste 0 -- -- 59
2019-03-29 01:00:00 5.2 0 Calma 5 Nordeste 0 -- -- 52
2019-03-29 00:00:00 7.3 0 Calma 9 Sudeste 0 -- -- 47
2019-03-28 23:00:00 10 3 Sudeste 15 Sur 0 -- -- 39
2019-03-28 22:00:00 9.2 5 Este 12 Sudeste 0 -- -- 38
2019-03-28 21:00:00 8.8 0 Calma 4 Nordeste 0 -- -- 39
2019-03-28 20:00:00 12 3 Nordeste 12 Sudeste 0 -- -- 30
2019-03-28 19:00:00 16.7 8 Sudeste 22 Sudeste 0 -- -- 21
2019-03-28 18:00:00 18.2 11 Sur 21 Sudoeste 0 -- -- 19
2019-03-28 17:00:00 18.4 7 Sur 26 Sudeste 0 -- -- 18
2019-03-28 16:00:00 18.4 10 Sur 26 Este 0 -- -- 17
2019-03-28 15:00:00 18.3 12 Sur 22 Sur 0 -- -- 18
2019-03-28 14:00:00 17.2 13 Sur 28 Sudeste 0 -- -- 19
2019-03-28 13:00:00 16 8 Este 24 Sudoeste 0 -- -- 20
2019-03-28 12:00:00 15.1 12 Sur 25 Sur 0 -- -- 21
2019-03-28 11:00:00 13.6 14 Sur 22 Sur 0 -- -- 27
2019-03-28 10:00:00 11.8 6 Sudoeste 12 Sudoeste 0 -- -- 42
2019-03-28 09:00:00 8.6 3 Sudeste 6 Sur 0 -- -- 54
2019-03-28 08:00:00 1.6 0 Calma 6 Este 0 -- -- 76
2019-03-28 07:00:00 1.8 0 Calma 6 Norte 0 -- -- 76
2019-03-28 06:00:00 2.1 0 Calma 5 Nordeste 0 -- -- 72
2019-03-28 05:00:00 2.8 0 Calma 3 Este 0 -- -- 70
2019-03-28 04:00:00 3.3 0 Calma 4 Nordeste 0 -- -- 66
2019-03-28 03:00:00 4.1 0 Calma 3 Nordeste 0 -- -- 64
2019-03-28 02:00:00 4.6 0 Calma 3 Este 0 -- -- 57
2019-03-28 01:00:00 5.9 0 Calma 5 Oeste 0 -- -- 51
2019-03-28 00:00:00 7.6 0 Calma 7 Este 0 -- -- 48
2019-03-27 23:00:00 8.1 0 Calma 17 Nordeste 0 -- -- 40
2019-03-27 22:00:00 12.3 6 Nordeste 22 Nordeste 0 -- -- 27
2019-03-27 21:00:00 9.8 5 Nordeste 12 Nordeste 0 -- -- 30
2019-03-27 20:00:00 12.5 4 Nordeste 15 Nordeste 0 -- -- 25
2019-03-27 19:00:00 16.6 6 Nordeste 24 Norte 0 -- -- 19
2019-03-27 18:00:00 18 12 Nordeste 26 Sudeste 0 -- -- 18
2019-03-27 17:00:00 18.6 12 Nordeste 30 Este 0 -- -- 16
2019-03-27 16:00:00 18.3 12 Nordeste 38 Nordeste 0 -- -- 17
2019-03-27 15:00:00 18.4 13 Nordeste 29 Este 0 -- -- 18
2019-03-27 14:00:00 17.9 17 Nordeste 37 Nordeste 0 -- -- 18
2019-03-27 13:00:00 17.3 11 Este 34 Sudeste 0 -- -- 18
2019-03-27 12:00:00 16.4 11 Nordeste 26 Nordeste 0 -- -- 26
2019-03-27 11:00:00 14.5 11 Este 25 Sur 0 -- -- 30
2019-03-27 10:00:00 11.8 5 Sudoeste 13 Sur 0 -- -- 37
2019-03-27 09:00:00 8.5 0 Calma 5 Este 0 -- -- 57
2019-03-27 08:00:00 1.1 0 Calma 4 Nordeste 0 -- -- 80
2019-03-27 07:00:00 0.9 0 Calma 5 Nordeste 0 -- -- 78
2019-03-27 06:00:00 2.1 2 Este 7 Este 0 -- -- 70
2019-03-27 05:00:00 2.4 0 Calma 3 Este 0 -- -- 71
2019-03-27 04:00:00 3.9 2 Nordeste 8 Este 0 -- -- 67
2019-03-27 03:00:00 4.8 0 Calma 6 Nordeste 0 -- -- 62
2019-03-27 02:00:00 5.6 0 Calma 6 Sudoeste 0 -- -- 63
2019-03-27 01:00:00 7.7 3 Nordeste 9 Este 0 -- -- 58
2019-03-27 00:00:00 9.5 0 Calma 14 Sur 0 -- -- 58
2019-03-26 23:00:00 11.6 3 Oeste 11 Este 0 -- -- 55
2019-03-26 22:00:00 14.4 5 Este 17 Sudeste 0 -- -- 47
2019-03-26 21:00:00 16.5 5 Este 19 Este 0 -- -- 38
2019-03-26 20:00:00 16.8 5 Este 18 Sur 0 -- -- 36
2019-03-26 19:00:00 20.3 9 Sudeste 20 Este 0 -- -- 25
2019-03-26 18:00:00 22.5 9 Este 28 Nordeste 0 -- -- 20
2019-03-26 17:00:00 23.1 10 Este 22 Este 0 -- -- 20
2019-03-26 16:00:00 23.5 6 Este 25 Sudeste 0 -- -- 19
2019-03-26 15:00:00 22.7 12 Este 27 Este 0 -- -- 19
2019-03-26 14:00:00 22.1 9 Nordeste 25 Este 0 -- -- 23
2019-03-26 13:00:00 20.7 13 Nordeste 28 Este 0 -- -- 24
2019-03-26 12:00:00 20.1 14 Nordeste 27 Este 0 -- -- 26
2019-03-26 11:00:00 18.7 13 Nordeste 31 Nordeste 0 -- -- 27
2019-03-26 10:00:00 16.6 16 Nordeste 35 Nordeste 0 -- -- 30
2019-03-26 09:00:00 14.4 12 Este 27 Nordeste 0 -- -- 33
2019-03-26 08:00:00 11.9 3 Norte 25 Nordeste 0 -- -- 35
2019-03-26 07:00:00 10.6 9 Nordeste 23 Norte 0 -- -- 40
2019-03-26 06:00:00 7.4 2 Sudoeste 8 Este 0 -- -- 55
2019-03-26 05:00:00 7 4 Este 12 Norte 0 -- -- 56
2019-03-26 04:00:00 6.2 0 Calma 9 Norte 0 -- -- 62
2019-03-26 03:00:00 7.9 4 Nordeste 9 Norte 0 -- -- 56
2019-03-26 02:00:00 7.7 2 Nordeste 5 Nordeste 0 -- -- 58
2019-03-26 01:00:00 9.8 0 Calma 14 Este 0 -- -- 51
2019-03-26 00:00:00 11.1 3 Este 9 Sudeste 0 -- -- 43
2019-03-25 23:00:00 13.4 2 Nordeste 18 Nordeste 0 -- -- 35
2019-03-25 22:00:00 13.9 7 Nordeste 19 Este 0 -- -- 30
2019-03-25 21:00:00 14.3 4 Nordeste 14 Este 0 -- -- 29
2019-03-25 20:00:00 15.4 3 Nordeste 18 Este 0 -- -- 28
2019-03-25 19:00:00 19.6 8 Nordeste 24 Este 0 -- -- 22
2019-03-25 18:00:00 21.1 8 Nordeste 30 Nordeste 0 -- -- 22
2019-03-25 17:00:00 21.6 11 Nordeste 31 Nordeste 0 -- -- 21
2019-03-25 16:00:00 21.5 11 Nordeste 32 Este 0 -- -- 22
2019-03-25 15:00:00 21.4 12 Nordeste 28 Este 0 -- -- 23
2019-03-25 14:00:00 20.6 10 Sudeste 31 Nordeste 0 -- -- 28
2019-03-25 13:00:00 19.1 12 Este 29 Nordeste 0 -- -- 31
2019-03-25 12:00:00 18.6 11 Este 35 Nordeste 0 -- -- 32
2019-03-25 11:00:00 17.2 13 Nordeste 29 Nordeste 0 -- -- 36
2019-03-25 10:00:00 15.6 12 Nordeste 30 Nordeste 0 -- -- 40
2019-03-25 09:00:00 14.3 9 Nordeste 23 Nordeste 0 -- -- 43
2019-03-25 08:00:00 10 4 Oeste 18 Norte 0 -- -- 53
2019-03-25 07:00:00 7.9 4 Noroeste 12 Norte 0 -- -- 63
2019-03-25 06:00:00 4.3 0 Calma 5 Norte 0 -- -- 82
2019-03-25 05:00:00 5.3 0 Calma 5 Nordeste 0 -- -- 80
2019-03-25 04:00:00 7 3 Nordeste 7 Este 0 -- -- 77
2019-03-25 03:00:00 7 0 Calma 3 Nordeste 0 -- -- 79
2019-03-25 02:00:00 8 0 Calma 9 Norte 0 -- -- 76
2019-03-25 01:00:00 7.9 0 Calma 4 Norte 0 -- -- 75
2019-03-25 00:00:00 7.5 0 Calma 3 Nordeste 0 -- -- 75